• Join FlightAware (Why Join?)
  • Login
  • US Flag 
07:03PM EDT


 

Airport Tracker/Info


-or-


 

Live Flight TrackerFlight Track Log ✈ WJA304 ✈ 07-May-2012 ✈ CYEG - CYWG

Flight Track Log - Related Links

Times and Time Zones

All times are in EDT time to prevent confusion due to time zone crossing. See the WJA304 flight status page for this flight to view local times or setup timezone preferences in your user account.

Time Position Orientation Groundspeed Altitude Reporting Facility
EDT Latitude Longitude Course Direction KTS MPH feet Rate Location/Type
09:08PM 53.2500 -113.5667 96° East 160 184 3,700  Level Edmonton Center
09:12PM 53.2167 -113.0833 82° East 340 391 14,200 2,820 Climbing Edmonton Center
09:13PM 53.2333 -112.8833 99° East 370 426 17,800 3,240 Climbing Edmonton Center
09:14PM 53.2167 -112.7167 80° East 370 426 20,700 2,760 Climbing Edmonton Center
09:15PM 53.2333 -112.5500 82° East 390 449 23,400 2,460 Climbing Edmonton Center
09:16PM 53.2500 -112.3500 105° East 410 472 25,700 1,980 Climbing Edmonton Center
09:17PM 53.2167 -112.1500 111° Southeast 430 495 27,400 1,800 Climbing Edmonton Center
09:18PM 53.1667 -111.9333 105° East 460 529 29,300 1,800 Climbing Edmonton Center
09:19PM 53.1333 -111.7333 103° East 470 541 31,100 1,740 Climbing Edmonton Center
09:20PM 53.1000 -111.5000 113° Southeast 480 552 32,800 1,800 Climbing Edmonton Center
09:21PM 53.0500 -111.3000 110° East 490 564 34,800 1,860 Climbing Edmonton Center
09:22PM 53.0000 -111.0667 105° East 480 552 36,600 1,560 Climbing Edmonton Center
09:23PM 52.9667 -110.8667 112° Southeast 480 552 38,000 1,320 Climbing Edmonton Center
09:24PM 52.9167 -110.6667 103° East 480 552 39,300 1,200 Climbing Edmonton Center
09:25PM 52.8833 -110.4333 105° East 480 552 40,400 840 Climbing Edmonton Center
09:26PM 52.8500 -110.2333 103° East 480 552 41,000 300 Climbing Edmonton Center
09:27PM 52.8167 -110.0000 112° Southeast 480 552 41,000  Level Edmonton Center
09:28PM 52.7667 -109.8000 103° East 480 552 41,000  Level Edmonton Center
09:29PM 52.7333 -109.5667 112° Southeast 480 552 41,000  Level Edmonton Center
09:30PM 52.6833 -109.3667 105° East 480 552 41,000  Level Edmonton Center
09:31PM 52.6500 -109.1667 112° Southeast 470 541 41,000  Level Edmonton Center
09:32PM 52.6000 -108.9667 98° East 470 541 41,000  Level Edmonton Center
09:33PM 52.5833 -108.7833 109° East 460 529 41,000  Level Edmonton Center
09:34PM 52.5333 -108.5500 112° Southeast 460 529 41,000  Level Edmonton Center
09:35PM 52.4833 -108.3500 98° East 450 518 41,000  Level Edmonton Center
09:36PM 52.4667 -108.1500 112° Southeast 450 518 41,000  Level Edmonton Center
09:37PM 52.4167 -107.9500 114° Southeast 450 518 41,000  Level Edmonton Center
09:38PM 52.3667 -107.7667 105° East 450 518 41,000  Level Edmonton Center
09:39PM 52.3333 -107.5667 105° East 450 518 41,000  Level Edmonton Center
09:40PM 52.3000 -107.3667 112° Southeast 450 518 41,000  Level Edmonton Center
09:41PM 52.2500 -107.1667 106° East 450 518 41,000  Level Edmonton Center
09:42PM 52.2167 -106.9833 112° Southeast 450 518 41,000  Level Edmonton Center
09:43PM 52.1667 -106.7833 109° East 450 518 41,000  Level Edmonton Center
09:45PM 52.0833 -106.4000 105° East 460 529 41,000  Level Edmonton Center
09:46PM 52.0500 -106.2000 104° East 450 518 41,000  Level Edmonton Center
09:47PM 52.0167 -105.9833 108° East 450 518 41,000  Level Edmonton Center
09:48PM 51.9833 -105.8167 110° East 450 518 41,000  Level Edmonton Center
09:49PM 51.9333 -105.6000 105° East 450 518 41,000  Level Edmonton Center
09:50PM 51.9000 -105.4000 106° East 450 518 41,000  Level Edmonton Center
09:51PM 51.8667 -105.2167 112° Southeast 450 518 41,000  Level Edmonton Center
09:52PM 51.8167 -105.0167 106° East 450 518 41,000  Level Edmonton Center
09:53PM 51.7833 -104.8333 112° Southeast 450 518 41,000  Level Edmonton Center
09:54PM 51.7333 -104.6333 114° Southeast 450 518 41,000  Level Edmonton Center
09:55PM 51.6833 -104.4500 110° East 450 518 41,000  Level Edmonton Center
09:56PM 51.6333 -104.2333 105° East 460 529 41,000  Level Edmonton Center
09:57PM 51.6000 -104.0333 114° Southeast 460 529 41,000  Level Edmonton Center
09:58PM 51.5500 -103.8500 106° East 460 529 41,000  Level Edmonton Center
09:59PM 51.5167 -103.6667 105° East 460 529 41,000  Level Edmonton Center
10:00PM 51.4833 -103.4667 112° Southeast 460 529 41,000  Level Edmonton Center
10:01PM 51.4333 -103.2667 112° Southeast 460 529 41,000  Level Edmonton Center
10:02PM 51.3833 -103.0667 110° East 460 529 41,000  Level Edmonton Center
10:03PM 51.3333 -102.8500 106° East 460 529 41,000  Level Edmonton Center
10:04PM 51.3000 -102.6667 113° Southeast 460 529 41,000  Level Edmonton Center
10:05PM 51.2500 -102.4833 113° Southeast 460 529 41,000  Level Edmonton Center
10:06PM 51.2000 -102.3000 106° East 460 529 41,000  Level Edmonton Center
10:07PM 51.1667 -102.1167 104° East 460 529 41,000  Level Edmonton Center
10:08PM 51.1333 -101.9000 113° Southeast 460 529 41,000  Level Edmonton Center
10:09PM 51.0833 -101.7167 104° East 460 529 41,000  Level Edmonton Center
10:10PM 51.0500 -101.5000 120° Southeast 460 529 41,000  Level Edmonton Center
10:11PM 50.9833 -101.3167 106° East 460 529 41,000  Level Edmonton Center
10:12PM 50.9500 -101.1333 106° East 460 529 41,000  Level Edmonton Center
10:13PM 50.9167 -100.9500 107° East 460 529 41,000  Level Edmonton Center
10:14PM 50.8667 -100.7000 106° East 460 529 41,000  Level Winnipeg Center
10:15PM 50.8333 -100.5167 113° Southeast 460 529 41,000 -60 Level Winnipeg Center
10:16PM 50.7833 -100.3333 111° Southeast 460 529 40,900 -600 Descending Winnipeg Center
10:17PM 50.7333 -100.1333 106° East 460 529 39,900 -1,020 Descending Winnipeg Center
10:18PM 50.7000 -99.9500 113° Southeast 460 529 38,900 -1,800 Descending Winnipeg Center
10:19PM 50.6500 -99.7667 113° Southeast 450 518 36,300 -2,460 Descending Winnipeg Center
10:20PM 50.6000 -99.5833 105° East 450 518 34,000 -2,280 Descending Winnipeg Center
10:21PM 50.5667 -99.3833 109° East 440 506 31,800 -2,100 Descending Winnipeg Center
10:22PM 50.5333 -99.2333 107° East 420 483 29,800 -1,980 Descending Winnipeg Center
10:23PM 50.5000 -99.0667 118° Southeast 400 460 27,900 -1,920 Descending Winnipeg Center
10:24PM 50.4500 -98.9167 107° East 380 437 26,000 -1,860 Descending Winnipeg Center
10:25PM 50.4167 -98.7500 111° Southeast 370 426 24,200 -1,800 Descending Winnipeg Center
10:26PM 50.3833 -98.6167 109° East 350 403 22,400 -1,740 Descending Winnipeg Center
10:27PM 50.3500 -98.4667 101° East 340 391 20,800 -1,680 Descending Winnipeg Center
10:28PM 50.3333 -98.3333 111° Southeast 340 391 19,100 -1,800 Descending Winnipeg Center
10:29PM 50.3000 -98.2000 101° East 320 368 17,300 -1,740 Descending Winnipeg Center
10:30PM 50.2833 -98.0667 111° Southeast 320 368 15,700 -2,040 Descending Winnipeg Center
10:31PM 50.2500 -97.9333 147° Southeast 320 368 13,300 -2,040 Descending Winnipeg Center
10:32PM 50.1667 -97.8500 141° Southeast 340 391 11,700 -1,620 Descending Winnipeg Center
10:33PM 50.1000 -97.7667 147° Southeast 320 368 10,100 -1,320 Descending Winnipeg Center
10:34PM 50.0333 -97.7000 133° Southeast 300 345 9,100 -900 Descending Winnipeg Center
10:35PM 49.9833 -97.6167 154° Southeast 270 311 8,400 -900 Descending Winnipeg Center
10:36PM 49.9167 -97.5667 162° South 250 288 7,400 -960 Descending Winnipeg Center
10:37PM 49.8500 -97.5333 154° Southeast 250 288 6,500 -960 Descending Winnipeg Center
10:38PM 49.7833 -97.4833 147° Southeast 250 288 5,500 -900 Descending Winnipeg Center
10:39PM 49.7333 -97.4333 133° Southeast 250 288 4,700 -720 Descending Winnipeg Center
10:40PM 49.6833 -97.3500 69° East 230 265 4,100 -360 Descending Winnipeg Center
10:41PM 49.7000 -97.2833 360° North 210 242 4,000 -300 Descending Winnipeg Center
10:42PM 49.7333 -97.2833 33° Northeast 160 184 3,500 -600 Descending Winnipeg Center
10:43PM 49.7667 -97.2500 360° North 130 150 2,900 -660 Descending Winnipeg Center
10:44PM 49.8167 -97.2500 360° North 120 138 2,200 -660 Descending Winnipeg Center
10:45PM 49.8333 -97.2500 12° North 120 138 1,600 -660 Descending Winnipeg Center
10:46PM 49.8833 -97.2333 12° North 120 138 900 -720 Descending Winnipeg Center